Time;durP1;ratioP1;P1;durP2;ratioP2;P2;SDS_P1;SDS_P2;PMS_P1;PMS_P2;Temp;Humidity;BMP_temperature;BMP_pressure;BME280_temperature;BME280_humidity;BME280_pressure;Samples;Min_cycle;Max_cycle;Signal;HPM_P1;HPM_P2
2023/07/03 00:00:17;;;;;;;;;;;;;;;13.70;66.48;100283.54;107907;1254;72388;-81
2023/07/03 00:03:04;;;;;;;;;;;;;;;13.77;66.45;100280.21;108081;1257;124490;-82
2023/07/03 00:05:31;;;;;;;;;;;;;;;13.81;66.47;100282.00;108169;1259;61104;-81
2023/07/03 00:07:58;;;;;;;;;;;;;;;13.84;66.35;100281.13;107987;1257;74174;-82
2023/07/03 00:10:25;;;;;;;;;;;;;;;13.85;66.35;100284.14;107922;1254;124479;-81
2023/07/03 00:12:52;;;;;;;;;;;;;;;13.88;66.37;100283.45;107819;1254;73183;-82
2023/07/03 00:15:21;;;;;;;;;;;;;;;13.91;66.40;100284.69;107681;1257;124463;-82
2023/07/03 00:17:48;;;;;;;;;;;;;;;13.94;66.42;100287.16;108121;1254;59990;-81
2023/07/03 00:20:43;;;;;;;;;;;;;;;13.97;66.34;100288.06;107428;1256;124435;-85
2023/07/03 00:23:10;;;;;;;;;;;;;;;13.99;66.36;100289.30;107345;1257;65902;-86
2023/07/03 00:25:56;;;;;;;;;;;;;;;14.01;66.42;100290.54;107499;1254;71366;-86
2023/07/03 00:28:29;;;;;;;;;;;;;;;14.02;66.38;100293.55;107313;1256;123944;-87
2023/07/03 00:31:08;;;;;;;;;;;;;;;14.03;66.54;100297.27;107654;1254;60163;-87
2023/07/03 00:33:37;;;;;;;;;;;;;;;14.04;66.36;100296.90;107415;1254;124332;-87
2023/07/03 00:36:04;;;;;;;;;;;;;;;14.03;66.38;100295.67;107525;1256;65952;-87
2023/07/03 00:38:31;;;;;;;;;;;;;;;14.02;66.42;100295.48;107340;1254;124345;-86
2023/07/03 00:41:21;;;;;;;;;;;;;;;13.99;66.40;100294.77;107393;1254;60449;-86
2023/07/03 00:43:54;;;;;;;;;;;;;;;13.93;66.46;100294.05;107733;1256;61052;-86
2023/07/03 00:46:30;;;;;;;;;;;;;;;13.86;66.43;100297.02;107478;1253;124177;-87
2023/07/03 00:48:59;;;;;;;;;;;;;;;13.80;66.56;100300.52;107542;1257;67150;-86
2023/07/03 00:51:40;;;;;;;;;;;;;;;13.74;66.67;100300.48;107379;1254;124803;-86
2023/07/03 00:54:17;;;;;;;;;;;;;;;13.70;66.88;100300.48;107142;1254;60150;-86
2023/07/03 00:57:23;;;;;;;;;;;;;;;13.69;67.02;100300.11;107386;1254;125069;-86
2023/07/03 00:59:49;;;;;;;;;;;;;;;13.73;67.22;100298.53;107402;1255;73364;-87
2023/07/03 01:02:25;;;;;;;;;;;;;;;13.77;67.30;100298.39;107393;1254;124935;-86
2023/07/03 01:05:13;;;;;;;;;;;;;;;13.83;67.42;100292.77;107626;1254;71355;-87
2023/07/03 01:07:40;;;;;;;;;;;;;;;13.91;67.43;100293.33;107444;1256;62085;-87
2023/07/03 01:10:20;;;;;;;;;;;;;;;13.95;67.49;100293.88;107248;1257;124908;-87
2023/07/03 01:12:58;;;;;;;;;;;;;;;14.01;67.48;100293.73;107320;1254;73079;-87
2023/07/03 01:15:26;;;;;;;;;;;;;;;14.07;67.43;100295.68;107406;1254;124903;-87
2023/07/03 01:18:00;;;;;;;;;;;;;;;14.13;67.46;100291.65;107510;1254;71401;-87
2023/07/03 01:20:32;;;;;;;;;;;;;;;14.17;67.33;100290.60;107449;1256;124924;-86
2023/07/03 01:23:07;;;;;;;;;;;;;;;14.24;67.35;100295.20;107584;1253;60550;-86
2023/07/03 01:25:35;;;;;;;;;;;;;;;14.30;67.32;100293.81;107659;1254;74790;-86
2023/07/03 01:28:03;;;;;;;;;;;;;;;14.37;67.29;100295.41;107549;1258;125456;-86
2023/07/03 01:30:31;;;;;;;;;;;;;;;14.43;67.21;100291.36;107823;1254;73291;-86
2023/07/03 01:32:58;;;;;;;;;;;;;;;14.47;67.18;100289.61;107283;1257;125347;-86
2023/07/03 01:35:25;;;;;;;;;;;;;;;14.53;67.11;100288.55;107364;1254;61263;-87
2023/07/03 01:38:01;;;;;;;;;;;;;;;14.58;67.00;100288.23;107784;1254;74670;-86
2023/07/03 01:40:28;;;;;;;;;;;;;;;14.63;66.94;100287.90;107562;1254;124435;-86
2023/07/03 01:42:55;;;;;;;;;;;;;;;14.66;66.74;100290.71;107562;1254;73202;-85
2023/07/03 01:45:28;;;;;;;;;;;;;;;14.65;66.64;100284.71;107391;1254;124177;-86
2023/07/03 01:47:56;;;;;;;;;;;;;;;14.61;66.59;100283.30;107492;1256;60495;-86
2023/07/03 01:50:29;;;;;;;;;;;;;;;14.54;66.53;100281.86;107443;1255;124410;-86
2023/07/03 01:53:24;;;;;;;;;;;;;;;14.46;66.48;100281.31;107720;1256;65682;-86
2023/07/03 01:55:59;;;;;;;;;;;;;;;14.36;66.46;100278.28;107705;1257;71080;-86
2023/07/03 01:58:45;;;;;;;;;;;;;;;14.28;66.58;100279.52;107593;1254;125216;-86
2023/07/03 02:01:15;;;;;;;;;;;;;;;14.19;66.68;100279.48;107787;1255;60417;-86
2023/07/03 02:04:08;;;;;;;;;;;;;;;14.09;66.68;100277.00;107243;1256;124306;-86
2023/07/03 02:06:39;;;;;;;;;;;;;;;13.97;66.92;100278.88;107469;1255;65855;-86
2023/07/03 02:09:11;;;;;;;;;;;;;;;13.88;66.98;100278.85;107602;1254;124696;-86
2023/07/03 02:11:47;;;;;;;;;;;;;;;13.80;67.12;100277.58;107680;1256;59565;-86
2023/07/03 02:14:15;;;;;;;;;;;;;;;13.73;67.28;100275.45;107517;1254;126153;-86
2023/07/03 02:16:47;;;;;;;;;;;;;;;13.66;67.39;100274.70;107675;1255;74457;-86
2023/07/03 02:19:15;;;;;;;;;;;;;;;13.59;67.59;100271.14;107427;1256;67046;-86
2023/07/03 02:21:44;;;;;;;;;;;;;;;13.53;67.72;100274.80;107507;1256;124651;-86
2023/07/03 02:24:13;;;;;;;;;;;;;;;13.48;67.77;100278.65;107552;1256;59552;-86
2023/07/03 02:26:46;;;;;;;;;;;;;;;13.42;68.02;100279.69;107586;1256;124299;-86
2023/07/03 02:29:13;;;;;;;;;;;;;;;13.36;68.10;100279.48;107804;1256;74646;-86
2023/07/03 02:31:43;;;;;;;;;;;;;;;13.34;68.33;100280.70;107678;1256;66906;-87
2023/07/03 02:34:16;;;;;;;;;;;;;;;13.34;68.44;100278.93;107487;1257;124174;-87
2023/07/03 02:36:46;;;;;;;;;;;;;;;13.33;68.59;100282.64;107668;1254;61318;-82
2023/07/03 02:39:13;;;;;;;;;;;;;;;13.31;68.67;100280.16;108952;1254;124169;-82
2023/07/03 02:41:40;;;;;;;;;;;;;;;13.30;68.64;100279.96;108960;1254;73366;-82
2023/07/03 02:44:08;;;;;;;;;;;;;;;13.31;68.76;100278.74;108958;1257;66974;-82
2023/07/03 02:46:35;;;;;;;;;;;;;;;13.32;68.83;100275.58;109080;1254;70778;-81
2023/07/03 02:49:03;;;;;;;;;;;;;;;13.35;68.80;100277.17;108266;1254;60785;-82
2023/07/03 02:51:30;;;;;;;;;;;;;;;13.38;68.89;100277.56;107690;1254;124528;-82
2023/07/03 02:53:57;;;;;;;;;;;;;;;13.42;68.95;100277.39;107587;1254;73434;-82
2023/07/03 02:56:24;;;;;;;;;;;;;;;13.46;68.97;100275.83;107863;1253;125103;-82
2023/07/03 02:58:51;;;;;;;;;;;;;;;13.54;69.01;100270.77;107852;1254;72735;-82
2023/07/03 03:01:18;;;;;;;;;;;;;;;13.67;69.03;100271.89;107748;1256;60296;-82
2023/07/03 03:03:46;;;;;;;;;;;;;;;13.84;68.88;100271.42;107948;1256;125900;-82
2023/07/03 03:06:13;;;;;;;;;;;;;;;13.98;68.65;100272.71;108181;1256;74690;-82
2023/07/03 03:08:39;;;;;;;;;;;;;;;14.09;68.46;100269.23;107946;1258;125216;-82
2023/07/03 03:11:06;;;;;;;;;;;;;;;14.16;68.22;100266.42;107775;1256;71788;-82
2023/07/03 03:13:33;;;;;;;;;;;;;;;14.23;67.97;100269.08;107593;1256;62226;-82
2023/07/03 03:16:00;;;;;;;;;;;;;;;14.32;67.88;100265.74;107571;1254;124815;-81
2023/07/03 03:18:27;;;;;;;;;;;;;;;14.40;67.78;100262.23;107543;1254;74461;-82
2023/07/03 03:20:54;;;;;;;;;;;;;;;14.47;67.61;100262.06;107696;1254;125451;-82
2023/07/03 03:23:21;;;;;;;;;;;;;;;14.57;67.51;100259.98;107917;1257;73202;-82
2023/07/03 03:25:48;;;;;;;;;;;;;;;14.69;67.47;100260.70;108162;1257;60472;-82
2023/07/03 03:28:16;;;;;;;;;;;;;;;14.81;67.25;100254.52;107986;1257;124602;-83
2023/07/03 03:30:45;;;;;;;;;;;;;;;14.99;67.34;100251.67;107819;1257;74969;-82
2023/07/03 03:33:14;;;;;;;;;;;;;;;15.47;67.72;100246.80;107738;1256;124557;-82
2023/07/03 03:35:41;;;;;;;;;;;;;;;16.26;67.60;100249.83;107792;1256;71546;-82
2023/07/03 03:38:09;;;;;;;;;;;;;;;16.76;66.16;100265.06;107457;1254;124535;-82
2023/07/03 03:40:36;;;;;;;;;;;;;;;16.84;65.02;100270.00;107707;1260;59850;-82
2023/07/03 03:43:04;;;;;;;;;;;;;;;16.81;64.40;100270.53;107877;1257;75204;-82
2023/07/03 03:45:31;;;;;;;;;;;;;;;16.81;64.08;100270.52;107698;1260;124985;-82
2023/07/03 03:47:59;;;;;;;;;;;;;;;16.88;63.80;100268.36;107998;1257;72631;-82
2023/07/03 03:50:26;;;;;;;;;;;;;;;17.01;63.48;100267.00;107830;1253;124270;-82
2023/07/03 03:52:53;;;;;;;;;;;;;;;17.37;63.75;100267.34;107758;1255;59572;-82
2023/07/03 03:55:20;;;;;;;;;;;;;;;18.53;64.33;100269.42;107851;1256;73868;-82
2023/07/03 03:57:47;;;;;;;;;;;;;;;20.24;63.70;100264.45;107464;1254;124408;-82
2023/07/03 04:00:19;;;;;;;;;;;;;;;21.92;61.98;100267.98;107607;1255;71394;-82
2023/07/03 04:02:48;;;;;;;;;;;;;;;23.43;59.71;100263.33;107552;1254;124271;-82
2023/07/03 04:05:15;;;;;;;;;;;;;;;24.71;57.46;100264.91;107901;1256;60236;-82
2023/07/03 04:07:43;;;;;;;;;;;;;;;25.73;55.61;100268.80;107912;1256;74541;-82
2023/07/03 04:10:11;;;;;;;;;;;;;;;26.87;53.86;100270.26;107839;1256;125020;-81
2023/07/03 04:12:38;;;;;;;;;;;;;;;27.81;51.70;100267.55;108016;1253;72860;-82
2023/07/03 04:15:07;;;;;;;;;;;;;;;28.66;50.38;100266.23;107851;1253;124118;-82
2023/07/03 04:17:34;;;;;;;;;;;;;;;29.41;48.72;100265.96;107991;1253;59513;-82
2023/07/03 04:20:01;;;;;;;;;;;;;;;30.17;47.31;100267.63;107907;1253;64768;-82
2023/07/03 04:22:28;;;;;;;;;;;;;;;30.91;45.84;100268.19;107446;1253;124787;-82
2023/07/03 04:24:55;;;;;;;;;;;;;;;31.62;44.30;100264.95;107374;1255;241486;-82
2023/07/03 04:27:22;;;;;;;;;;;;;;;32.22;43.05;100263.95;107842;1254;124430;-81
2023/07/03 04:29:49;;;;;;;;;;;;;;;32.84;41.86;100264.43;108128;1253;60499;-81
2023/07/03 04:32:16;;;;;;;;;;;;;;;33.44;40.89;100260.94;107969;1256;124699;-81
2023/07/03 04:34:43;;;;;;;;;;;;;;;34.04;39.61;100260.79;107980;1256;60338;-81
2023/07/03 04:37:10;;;;;;;;;;;;;;;34.56;38.47;100259.59;107903;1255;62556;-81
2023/07/03 04:39:37;;;;;;;;;;;;;;;35.00;37.34;100263.18;107670;1257;124636;-81
2023/07/03 04:42:04;;;;;;;;;;;;;;;35.39;36.49;100273.89;107662;1254;59582;-81
2023/07/03 04:44:37;;;;;;;;;;;;;;;35.94;35.99;100270.74;107508;1256;125468;-81
2023/07/03 04:47:05;;;;;;;;;;;;;;;36.45;34.76;100270.89;107898;1254;60175;-81
2023/07/03 04:49:32;;;;;;;;;;;;;;;36.72;33.82;100270.10;107924;1254;64104;-81
2023/07/03 04:51:59;;;;;;;;;;;;;;;37.06;33.23;100270.20;107678;1254;124943;-81
2023/07/03 04:54:27;;;;;;;;;;;;;;;37.58;32.52;100268.48;107683;1254;59449;-80
2023/07/03 04:56:55;;;;;;;;;;;;;;;37.93;31.70;100263.39;107718;1256;124253;-81
2023/07/03 04:59:22;;;;;;;;;;;;;;;38.27;31.06;100262.61;107482;1256;61245;-81
2023/07/03 05:01:56;;;;;;;;;;;;;;;38.56;30.58;100263.27;107652;1254;62868;-81
2023/07/03 05:04:23;;;;;;;;;;;;;;;39.00;30.05;100266.69;107340;1256;124586;-80
2023/07/03 05:06:51;;;;;;;;;;;;;;;39.31;29.33;100263.18;107464;1254;61254;-81
2023/07/03 05:09:18;;;;;;;;;;;;;;;39.43;28.83;100259.89;107859;1258;124719;-81
2023/07/03 05:11:48;;;;;;;;;;;;;;;39.73;28.46;100256.68;107898;1256;59446;-81
2023/07/03 05:14:15;;;;;;;;;;;;;;;40.11;27.94;100262.07;107785;1254;124869;-81
2023/07/03 05:16:42;;;;;;;;;;;;;;;40.47;27.37;100261.45;107728;1259;60361;-80
2023/07/03 05:19:09;;;;;;;;;;;;;;;40.67;26.67;100267.04;108001;1259;61196;-81
2023/07/03 05:21:36;;;;;;;;;;;;;;;40.87;26.28;100262.67;107888;1255;124544;-81
2023/07/03 05:24:05;;;;;;;;;;;;;;;41.12;25.72;100264.15;107745;1254;60928;-81
2023/07/03 05:26:32;;;;;;;;;;;;;;;41.43;25.40;100270.39;107580;1254;124275;-81
2023/07/03 05:28:59;;;;;;;;;;;;;;;41.74;24.93;100272.05;107769;1254;61234;-83
2023/07/03 05:31:27;;;;;;;;;;;;;;;41.96;24.56;100273.71;107689;1254;62168;-81
2023/07/03 05:34:02;;;;;;;;;;;;;;;42.11;24.07;100272.55;107868;1257;124311;-81
2023/07/03 05:36:31;;;;;;;;;;;;;;;42.29;23.77;100274.93;108162;1254;59631;-81
2023/07/03 05:38:58;;;;;;;;;;;;;;;42.34;23.31;100275.04;107685;1256;124471;-81
2023/07/03 05:41:25;;;;;;;;;;;;;;;42.42;23.07;100271.39;107876;1254;59658;-81
2023/07/03 05:43:58;;;;;;;;;;;;;;;42.24;22.47;100268.67;107877;1254;60357;-81
2023/07/03 05:46:25;;;;;;;;;;;;;;;40.12;21.76;100260.31;107888;1254;124950;-81
2023/07/03 05:48:53;;;;;;;;;;;;;;;37.24;21.98;100262.48;108249;1256;59597;-80
2023/07/03 05:51:20;;;;;;;;;;;;;;;34.78;23.07;100262.02;107922;1253;124899;-80
2023/07/03 05:53:47;;;;;;;;;;;;;;;32.80;24.18;100262.52;108050;1254;59997;-80
2023/07/03 05:56:15;;;;;;;;;;;;;;;31.07;25.16;100263.24;107893;1260;124655;-82
2023/07/03 05:58:42;;;;;;;;;;;;;;;29.58;26.28;100265.84;107918;1257;64472;-82
2023/07/03 06:01:18;;;;;;;;;;;;;;;28.31;27.41;100265.71;107897;1257;65731;-88
2023/07/03 06:03:59;;;;;;;;;;;;;;;27.35;28.23;100267.30;107390;1256;124329;-89
2023/07/03 06:06:35;;;;;;;;;;;;;;;26.38;29.17;100278.23;107491;1256;61280;-87
2023/07/03 06:09:05;;;;;;;;;;;;;;;25.56;30.04;100279.30;107434;1254;124241;-87
2023/07/03 06:11:32;;;;;;;;;;;;;;;24.94;30.72;100280.84;107738;1254;74460;-88
2023/07/03 06:14:17;;;;;;;;;;;;;;;24.46;31.44;100279.05;107549;1256;66784;-88
2023/07/03 06:16:44;;;;;;;;;;;;;;;23.95;31.83;100280.48;107533;1257;72987;-88
2023/07/03 06:19:11;;;;;;;;;;;;;;;23.48;32.40;100285.05;107291;1254;61244;-87
2023/07/03 06:21:39;;;;;;;;;;;;;;;22.99;32.86;100288.48;107130;1255;124766;-87
2023/07/03 06:24:12;;;;;;;;;;;;;;;22.67;33.88;100293.28;107418;1256;73693;-89
2023/07/03 06:26:55;;;;;;;;;;;;;;;22.42;34.04;100294.08;107213;1257;125116;-87
2023/07/03 06:29:22;;;;;;;;;;;;;;;22.20;34.43;100289.02;107598;1256;72697;-87
2023/07/03 06:31:52;;;;;;;;;;;;;;;21.97;34.65;100289.88;107393;1253;61270;-86
2023/07/03 06:34:19;;;;;;;;;;;;;;;21.77;34.93;100288.67;107239;1255;124424;-89
2023/07/03 06:36:46;;;;;;;;;;;;;;;21.61;35.39;100287.86;107246;1256;74382;-89
2023/07/03 06:39:24;;;;;;;;;;;;;;;21.45;35.63;100290.45;107385;1257;124327;-88
2023/07/03 06:42:02;;;;;;;;;;;;;;;21.28;35.81;100290.50;107335;1254;73166;-87
2023/07/03 06:44:50;;;;;;;;;;;;;;;21.18;36.08;100289.89;107310;1256;124649;-87
2023/07/03 06:47:23;;;;;;;;;;;;;;;21.16;36.29;100283.85;107511;1256;61268;-88
2023/07/03 06:49:51;;;;;;;;;;;;;;;21.12;36.55;100279.86;107752;1256;73411;-88
2023/07/03 06:52:26;;;;;;;;;;;;;;;21.10;36.89;100289.02;107662;1254;124726;-88
2023/07/03 06:54:54;;;;;;;;;;;;;;;21.06;36.91;100287.88;107740;1257;71622;-87
2023/07/03 06:57:35;;;;;;;;;;;;;;;21.05;36.97;100285.59;107652;1256;124910;-87
2023/07/03 07:00:05;;;;;;;;;;;;;;;21.01;37.12;100283.71;107629;1255;60118;-88
2023/07/03 07:02:33;;;;;;;;;;;;;;;20.99;37.48;100279.13;107463;1260;124659;-87
2023/07/03 07:05:00;;;;;;;;;;;;;;;20.99;37.73;100280.92;107841;1254;67115;-88
2023/07/03 07:07:29;;;;;;;;;;;;;;;20.95;37.58;100286.38;107771;1257;72484;-88
2023/07/03 07:09:57;;;;;;;;;;;;;;;20.92;37.87;100284.30;107642;1254;124454;-87
2023/07/03 07:12:30;;;;;;;;;;;;;;;20.88;37.93;100282.79;107784;1257;60307;-88
2023/07/03 07:15:06;;;;;;;;;;;;;;;20.84;37.80;100289.52;107538;1257;124631;-88
2023/07/03 07:17:40;;;;;;;;;;;;;;;20.78;37.64;100290.35;107667;1254;65999;-89
2023/07/03 07:20:10;;;;;;;;;;;;;;;20.78;37.82;100290.70;107817;1257;71514;-89
2023/07/03 07:22:39;;;;;;;;;;;;;;;20.81;37.86;100283.88;107801;1254;124333;-86
2023/07/03 07:25:12;;;;;;;;;;;;;;;20.84;37.84;100285.57;107783;1255;60470;-87
2023/07/03 07:27:46;;;;;;;;;;;;;;;20.87;37.91;100280.69;107278;1255;124160;-86
2023/07/03 07:30:23;;;;;;;;;;;;;;;20.88;37.99;100284.05;107515;1255;67111;-91
2023/07/03 07:32:50;;;;;;;;;;;;;;;20.92;37.95;100277.88;107485;1258;124616;-91
2023/07/03 07:35:22;;;;;;;;;;;;;;;20.97;38.27;100277.92;107274;1256;60336;-90
2023/07/03 07:37:55;;;;;;;;;;;;;;;21.04;38.24;100276.50;107209;1255;62181;-89
2023/07/03 07:40:29;;;;;;;;;;;;;;;21.07;38.25;100274.99;107224;1257;124378;-90
2023/07/03 07:42:56;;;;;;;;;;;;;;;21.12;38.08;100274.16;107205;1256;65648;-88
2023/07/03 07:45:32;;;;;;;;;;;;;;;21.14;38.17;100271.77;107263;1261;124285;-89
2023/07/03 07:48:01;;;;;;;;;;;;;;;21.16;38.00;100268.35;107362;1256;62169;-91
2023/07/03 07:51:03;;;;;;;;;;;;;;;21.16;38.04;100264.95;107355;1256;124591;-88
2023/07/03 07:53:39;;;;;;;;;;;;;;;21.19;37.85;100273.98;107431;1256;74592;-87
2023/07/03 07:56:13;;;;;;;;;;;;;;;21.18;37.61;100272.76;107566;1256;66036;-88
2023/07/03 07:58:47;;;;;;;;;;;;;;;21.21;37.75;100276.61;107630;1255;72738;-87
2023/07/03 08:01:14;;;;;;;;;;;;;;;21.29;37.81;100281.74;107387;1257;60343;-88
2023/07/03 08:03:43;;;;;;;;;;;;;;;21.31;37.51;100284.88;107166;1259;124777;-87
2023/07/03 08:06:12;;;;;;;;;;;;;;;21.37;37.49;100285.11;107492;1256;73376;-86
2023/07/03 08:08:52;;;;;;;;;;;;;;;21.43;37.72;100278.71;107436;1257;124620;-87
2023/07/03 08:11:19;;;;;;;;;;;;;;;21.49;37.65;100273.36;107173;1261;70993;-87
2023/07/03 08:13:48;;;;;;;;;;;;;;;21.52;37.59;100272.75;107362;1256;61826;-87
2023/07/03 08:16:15;;;;;;;;;;;;;;;21.53;37.57;100276.47;107265;1256;124497;-87
2023/07/03 08:18:43;;;;;;;;;;;;;;;21.56;37.59;100278.72;107445;1261;75695;-87
2023/07/03 08:21:12;;;;;;;;;;;;;;;21.61;37.38;100277.86;107354;1256;124384;-87
2023/07/03 08:23:39;;;;;;;;;;;;;;;21.68;37.39;100279.10;107526;1257;71410;-82
2023/07/03 08:26:07;;;;;;;;;;;;;;;21.85;37.58;100286.64;107354;1257;60537;-82
2023/07/03 08:28:40;;;;;;;;;;;;;;;22.01;37.27;100287.97;108860;1256;124622;-81
2023/07/03 08:31:07;;;;;;;;;;;;;;;21.98;36.81;100286.12;108427;1254;73415;-82
2023/07/03 08:33:35;;;;;;;;;;;;;;;21.98;36.90;100284.84;107993;1256;124807;-81
2023/07/03 08:36:02;;;;;;;;;;;;;;;22.05;36.90;100286.94;107979;1256;72928;-82
2023/07/03 08:38:30;;;;;;;;;;;;;;;22.13;37.11;100282.42;107584;1256;124599;-82
2023/07/03 08:40:58;;;;;;;;;;;;;;;22.21;36.96;100283.27;107879;1257;61227;-82
2023/07/03 08:43:36;;;;;;;;;;;;;;;22.27;36.88;100287.40;107655;1257;75222;-81
2023/07/03 08:46:03;;;;;;;;;;;;;;;22.30;36.51;100282.49;107641;1256;124722;-82
2023/07/03 08:48:31;;;;;;;;;;;;;;;22.38;36.52;100286.70;107759;1257;71049;-82
2023/07/03 08:51:18;;;;;;;;;;;;;;;22.55;36.23;100287.42;107545;1257;124496;-87
2023/07/03 08:54:34;;;;;;;;;;;;;;;22.64;36.09;100290.02;107666;1256;61136;-87
2023/07/03 08:57:22;;;;;;;;;;;;;;;22.58;35.88;100293.05;107772;1256;124481;-88
2023/07/03 08:59:55;;;;;;;;;;;;;;;22.61;36.06;100289.36;107926;1257;64723;-88
2023/07/03 09:02:36;;;;;;;;;;;;;;;22.70;35.98;100290.33;107664;1255;124490;-86
2023/07/03 09:05:32;;;;;;;;;;;;;;;22.94;35.89;100298.50;107825;1256;61183;-86
2023/07/03 09:08:01;;;;;;;;;;;;;;;23.40;35.53;100298.22;107901;1256;60017;-82
2023/07/03 09:10:39;;;;;;;;;;;;;;;23.72;35.21;100304.42;107695;1254;125759;-83
2023/07/03 09:13:06;;;;;;;;;;;;;;;23.83;34.69;100307.07;107667;1257;67335;-86
2023/07/03 09:15:48;;;;;;;;;;;;;;;23.79;34.50;100305.96;107558;1257;124793;-87
2023/07/03 09:18:24;;;;;;;;;;;;;;;23.74;34.48;100319.56;107817;1254;61266;-83
2023/07/03 09:20:51;;;;;;;;;;;;;;;23.77;34.54;100317.14;107719;1256;124610;-87
2023/07/03 09:23:20;;;;;;;;;;;;;;;23.85;34.37;100324.20;107834;1256;75258;-86
2023/07/03 09:26:09;;;;;;;;;;;;;;;23.89;34.28;100324.60;108838;1256;64775;-86
2023/07/03 09:28:38;;;;;;;;;;;;;;;23.99;34.54;100324.23;107591;1257;124769;-86
2023/07/03 09:31:05;;;;;;;;;;;;;;;24.16;34.42;100326.09;107942;1255;61245;-86
2023/07/03 09:33:32;;;;;;;;;;;;;;;24.26;34.42;100321.95;107700;1256;60980;-86
2023/07/03 09:36:26;;;;;;;;;;;;;;;24.32;34.35;100324.95;107896;1257;73200;-86
2023/07/03 09:38:53;;;;;;;;;;;;;;;24.38;34.40;100323.64;107871;1258;125502;-78
2023/07/03 09:41:24;;;;;;;;;;;;;;;24.42;34.21;100322.41;108294;1258;72459;-80
2023/07/03 09:43:51;;;;;;;;;;;;;;;24.40;34.13;100326.23;108016;1259;60368;-81
2023/07/03 09:46:20;;;;;;;;;;;;;;;24.43;34.15;100330.25;107588;1254;124341;-81
2023/07/03 09:48:47;;;;;;;;;;;;;;;24.53;33.76;100328.30;107595;1254;74387;-82
2023/07/03 09:51:28;;;;;;;;;;;;;;;24.62;33.70;100330.25;107551;1261;124966;-86
2023/07/03 09:53:56;;;;;;;;;;;;;;;24.80;33.50;100331.52;108020;1259;72889;-88
2023/07/03 09:56:30;;;;;;;;;;;;;;;25.10;33.62;100331.17;107876;1255;59825;-86
2023/07/03 09:59:09;;;;;;;;;;;;;;;25.38;33.36;100324.47;107767;1257;59956;-85
2023/07/03 10:01:37;;;;;;;;;;;;;;;25.53;32.94;100330.64;107801;1259;73367;-80
2023/07/03 10:04:05;;;;;;;;;;;;;;;25.60;32.89;100333.00;107576;1254;124425;-81
2023/07/03 10:06:32;;;;;;;;;;;;;;;25.58;32.75;100329.16;107559;1261;71418;-80
2023/07/03 10:09:01;;;;;;;;;;;;;;;25.52;32.91;100334.62;107757;1254;124593;-81
2023/07/03 10:11:31;;;;;;;;;;;;;;;25.44;32.77;100326.88;107955;1254;60187;-81
2023/07/03 10:14:00;;;;;;;;;;;;;;;25.52;32.75;100327.28;108099;1255;74413;-84
2023/07/03 10:16:27;;;;;;;;;;;;;;;25.57;32.66;100326.32;107914;1257;125023;-83
2023/07/03 10:18:56;;;;;;;;;;;;;;;25.57;32.61;100328.64;107845;1256;71071;-81
2023/07/03 10:21:23;;;;;;;;;;;;;;;25.53;32.67;100329.89;107380;1257;124532;-82
2023/07/03 10:23:55;;;;;;;;;;;;;;;25.53;32.70;100337.12;107530;1254;59361;-82
2023/07/03 10:26:23;;;;;;;;;;;;;;;25.51;32.89;100334.69;107719;1257;72876;-82
2023/07/03 10:28:50;;;;;;;;;;;;;;;25.50;32.70;100330.40;107465;1254;124325;-81
2023/07/03 10:31:46;;;;;;;;;;;;;;;25.54;32.64;100329.17;108307;1256;72520;-84
2023/07/03 10:34:16;;;;;;;;;;;;;;;25.58;32.39;100326.42;107433;1254;124679;-82
2023/07/03 10:36:43;;;;;;;;;;;;;;;25.53;32.48;100325.08;107720;1254;60140;-80
2023/07/03 10:39:14;;;;;;;;;;;;;;;25.53;32.70;100323.08;107694;1254;125355;-79
2023/07/03 10:41:49;;;;;;;;;;;;;;;25.62;32.62;100322.86;107630;1256;65491;-79
2023/07/03 10:44:18;;;;;;;;;;;;;;;25.68;32.56;100327.27;107696;1253;71401;-80
2023/07/03 10:47:08;;;;;;;;;;;;;;;25.64;32.46;100325.67;107403;1261;125811;-79
2023/07/03 10:49:35;;;;;;;;;;;;;;;25.62;32.38;100318.55;107684;1253;59967;-79
2023/07/03 10:52:10;;;;;;;;;;;;;;;25.57;32.48;100325.98;107814;1255;125090;-80
2023/07/03 10:54:49;;;;;;;;;;;;;;;25.58;32.56;100325.02;107753;1254;67073;-80
2023/07/03 10:57:18;;;;;;;;;;;;;;;25.67;32.39;100333.28;107994;1259;124466;-80
2023/07/03 10:59:46;;;;;;;;;;;;;;;25.87;32.39;100331.64;107905;1257;60467;-79
2023/07/03 11:02:34;;;;;;;;;;;;;;;26.02;32.12;100337.81;107855;1254;61192;-79
2023/07/03 11:05:20;;;;;;;;;;;;;;;26.14;31.88;100330.23;108011;1254;74724;-80
2023/07/03 11:07:56;;;;;;;;;;;;;;;26.34;31.85;100325.55;107805;1259;66793;-80
2023/07/03 11:10:26;;;;;;;;;;;;;;;26.54;31.89;100328.38;107848;1257;124412;-80
2023/07/03 11:12:56;;;;;;;;;;;;;;;26.81;31.77;100335.40;108184;1257;60343;-80
2023/07/03 11:15:27;;;;;;;;;;;;;;;26.93;31.36;100327.02;107867;1257;125050;-79
2023/07/03 11:17:57;;;;;;;;;;;;;;;27.01;31.34;100328.84;107844;1259;74748;-80
2023/07/03 11:20:36;;;;;;;;;;;;;;;26.91;31.18;100328.75;107904;1255;67042;-80
2023/07/03 11:23:25;;;;;;;;;;;;;;;26.69;31.18;100330.92;107928;1259;72689;-80
2023/07/03 11:25:54;;;;;;;;;;;;;;;26.61;31.25;100335.84;107916;1257;59400;-80
2023/07/03 11:28:25;;;;;;;;;;;;;;;26.55;30.87;100333.38;107534;1261;124692;-84
2023/07/03 11:30:53;;;;;;;;;;;;;;;26.49;31.08;100341.37;107804;1255;73376;-84
2023/07/03 11:33:21;;;;;;;;;;;;;;;26.36;31.10;100348.49;107423;1262;124889;-83
2023/07/03 11:35:56;;;;;;;;;;;;;;;26.19;31.11;100354.46;107560;1262;71358;-83
2023/07/03 11:38:23;;;;;;;;;;;;;;;26.09;31.27;100353.34;107803;1257;61136;-83
2023/07/03 11:40:54;;;;;;;;;;;;;;;25.97;31.21;100352.08;107575;1257;124359;-84
2023/07/03 11:43:33;;;;;;;;;;;;;;;25.92;31.15;100350.13;107987;1254;73704;-83
2023/07/03 11:46:02;;;;;;;;;;;;;;;25.79;30.93;100359.86;107961;1254;126120;-84
2023/07/03 11:48:30;;;;;;;;;;;;;;;25.54;30.91;100353.77;107756;1256;72714;-83
2023/07/03 11:51:01;;;;;;;;;;;;;;;25.34;31.23;100350.64;107509;1254;124480;-83
2023/07/03 11:53:29;;;;;;;;;;;;;;;25.40;31.49;100356.17;107242;1260;60160;-84
2023/07/03 11:56:04;;;;;;;;;;;;;;;25.52;31.43;100355.30;107215;1256;74953;-86
2023/07/03 11:58:35;;;;;;;;;;;;;;;25.56;31.48;100350.95;107211;1256;124490;-82
2023/07/03 12:01:20;;;;;;;;;;;;;;;25.71;31.65;100353.75;107522;1254;73195;-80
2023/07/03 12:03:54;;;;;;;;;;;;;;;25.85;31.48;100357.45;108728;1257;124637;-80
2023/07/03 12:06:51;;;;;;;;;;;;;;;25.86;31.29;100350.23;109043;1258;60392;-79
2023/07/03 12:09:19;;;;;;;;;;;;;;;26.00;31.39;100350.47;108413;1262;124597;-79
2023/07/03 12:12:03;;;;;;;;;;;;;;;26.09;31.11;100351.18;108435;1262;67234;-80
2023/07/03 12:14:44;;;;;;;;;;;;;;;26.03;31.18;100348.37;108500;1264;71866;-80
2023/07/03 12:17:23;;;;;;;;;;;;;;;25.85;30.84;100350.61;108492;1264;59394;-80
2023/07/03 12:20:08;;;;;;;;;;;;;;;25.47;30.68;100350.29;108567;1264;60151;-79
2023/07/03 12:22:38;;;;;;;;;;;;;;;25.06;30.97;100356.66;108388;1263;126038;-79
2023/07/03 12:25:08;;;;;;;;;;;;;;;24.70;31.03;100353.44;108461;1262;65731;-80
2023/07/03 12:27:35;;;;;;;;;;;;;;;24.29;31.43;100364.52;108338;1262;125222;-80
2023/07/03 12:30:03;;;;;;;;;;;;;;;23.88;31.48;100371.39;108363;1264;59541;-80
2023/07/03 12:32:31;;;;;;;;;;;;;;;23.57;31.89;100380.16;108504;1264;59835;-80
2023/07/03 12:35:09;;;;;;;;;;;;;;;23.36;32.28;100385.71;108442;1262;124263;-80
2023/07/03 12:37:39;;;;;;;;;;;;;;;23.19;32.53;100389.69;108433;1264;67112;-81
2023/07/03 12:40:08;;;;;;;;;;;;;;;23.01;32.83;100404.20;108331;1264;125113;-81
2023/07/03 12:42:35;;;;;;;;;;;;;;;22.90;32.98;100405.61;108500;1262;59103;-80
2023/07/03 12:45:12;;;;;;;;;;;;;;;22.84;33.18;100407.95;108420;1263;124949;-81